Time;durP1;ratioP1;P1;durP2;ratioP2;P2;SDS_P1;SDS_P2;PMS_P1;PMS_P2;Temp;Humidity;BMP_temperature;BMP_pressure;BME280_temperature;BME280_humidity;BME280_pressure;Samples;Min_cycle;Max_cycle;Signal;HPM_P1;HPM_P2
2023/04/21 00:01:02;;;;;;;;;;;;;;;13.96;54.42;99861.59;4401387;32;33016;-82
2023/04/21 00:03:32;;;;;;;;;;;;;;;13.89;54.80;99852.25;4419412;32;34128;-82
2023/04/21 00:06:01;;;;;;;;;;;;;;;13.96;54.52;99858.94;4409091;32;32989;-81
2023/04/21 00:08:29;;;;;;;;;;;;;;;13.89;54.80;99857.56;4415976;32;33438;-82
2023/04/21 00:13:30;;;;;;;;;;;;;;;13.87;54.94;99854.16;4404704;32;32887;-82
2023/04/21 00:16:04;;;;;;;;;;;;;;;13.61;55.04;99852.94;4405418;32;32935;-82
2023/04/21 00:18:32;;;;;;;;;;;;;;;13.61;55.16;99847.63;4432128;32;34145;-82
2023/04/21 00:21:00;;;;;;;;;;;;;;;13.55;55.42;99847.97;4406616;32;32112;-82
2023/04/21 00:23:28;;;;;;;;;;;;;;;13.67;55.02;99846.44;4417609;32;33361;-82
2023/04/21 00:26:01;;;;;;;;;;;;;;;13.11;56.92;99845.06;4417061;32;33836;-82
2023/04/21 00:28:29;;;;;;;;;;;;;;;13.37;55.81;99847.19;4391696;32;33935;-82
2023/04/21 00:30:57;;;;;;;;;;;;;;;13.11;56.57;99850.38;4417655;32;33926;-81
2023/04/21 00:33:25;;;;;;;;;;;;;;;13.22;55.58;99851.53;4416000;32;34201;-82
2023/04/21 00:35:55;;;;;;;;;;;;;;;13.04;56.75;99845.38;4414792;32;32842;-82
2023/04/21 00:38:23;;;;;;;;;;;;;;;13.08;56.62;99840.78;4406137;32;32745;-82
2023/04/21 00:40:51;;;;;;;;;;;;;;;13.27;55.69;99848.63;4418440;32;33344;-82
2023/04/21 00:43:20;;;;;;;;;;;;;;;13.10;56.20;99845.97;4407810;32;33308;-82
2023/04/21 00:45:48;;;;;;;;;;;;;;;12.76;56.88;99845.97;4427232;32;34174;-82
2023/04/21 00:48:16;;;;;;;;;;;;;;;12.87;56.37;99850.72;4416496;32;33377;-82
2023/04/21 00:50:44;;;;;;;;;;;;;;;12.71;56.68;99850.63;4415598;32;33383;-82
2023/04/21 00:53:11;;;;;;;;;;;;;;;12.44;57.76;99842.34;4402080;32;33304;-82
2023/04/21 00:55:42;;;;;;;;;;;;;;;12.46;57.68;99848.41;4416901;32;33495;-81
2023/04/21 00:58:10;;;;;;;;;;;;;;;12.43;57.73;99837.09;4416487;32;34632;-82
2023/04/21 01:00:38;;;;;;;;;;;;;;;12.62;57.05;99844.97;4417646;32;33342;-82
2023/04/21 01:03:06;;;;;;;;;;;;;;;12.63;56.73;99836.06;4404498;32;34232;-82
2023/04/21 01:05:34;;;;;;;;;;;;;;;12.65;56.62;99840.37;4416542;32;33859;-81
2023/04/21 01:08:02;;;;;;;;;;;;;;;12.37;57.37;99843.56;4422054;32;34740;-82
2023/04/21 01:10:30;;;;;;;;;;;;;;;12.41;56.71;99834.53;4402409;32;32619;-82
2023/04/21 01:12:58;;;;;;;;;;;;;;;12.49;56.96;99839.44;4403211;32;33005;-82
2023/04/21 01:15:29;;;;;;;;;;;;;;;12.34;57.46;99840.19;4416005;32;34242;-81
2023/04/21 01:17:57;;;;;;;;;;;;;;;12.64;56.26;99843.09;4416842;32;33946;-81
2023/04/21 01:20:25;;;;;;;;;;;;;;;12.49;56.52;99839.44;4409907;32;32007;-81
2023/04/21 01:22:52;;;;;;;;;;;;;;;12.49;56.77;99842.09;4403487;32;33144;-81
2023/04/21 01:25:24;;;;;;;;;;;;;;;12.46;56.55;99840.44;4416404;32;34093;-81
2023/04/21 01:27:52;;;;;;;;;;;;;;;12.50;55.99;99836.72;4428259;32;32862;-81
2023/04/21 01:30:20;;;;;;;;;;;;;;;12.38;56.11;99831.19;4405619;32;32426;-81
2023/04/21 01:32:48;;;;;;;;;;;;;;;12.24;56.35;99834.50;4416171;32;33905;-82
2023/04/21 01:35:15;;;;;;;;;;;;;;;12.14;57.11;99838.56;4407442;32;32911;-82
2023/04/21 01:37:43;;;;;;;;;;;;;;;11.89;57.88;99837.12;4419698;32;33737;-83
2023/04/21 01:40:11;;;;;;;;;;;;;;;11.99;57.52;99830.44;4406209;32;33087;-83
2023/04/21 01:42:42;;;;;;;;;;;;;;;12.14;57.22;99827.97;4417793;32;33738;-83
2023/04/21 01:45:10;;;;;;;;;;;;;;;12.26;56.89;99830.88;4415649;32;33974;-83
2023/04/21 01:47:38;;;;;;;;;;;;;;;12.16;56.70;99826.97;4414568;32;34762;-83
2023/04/21 01:50:09;;;;;;;;;;;;;;;11.76;58.21;99833.31;4404447;32;32489;-83
2023/04/21 01:52:37;;;;;;;;;;;;;;;11.82;58.03;99832.16;4432123;32;34568;-83
2023/04/21 01:55:05;;;;;;;;;;;;;;;12.17;56.71;99828.69;4416077;32;32825;-82
2023/04/21 01:57:33;;;;;;;;;;;;;;;11.58;58.40;99831.53;4417407;32;33847;-81
2023/04/21 02:00:01;;;;;;;;;;;;;;;11.79;57.61;99833.16;4417736;32;33067;-81
2023/04/21 02:02:42;;;;;;;;;;;;;;;11.92;56.97;99836.97;4412940;32;33625;-82
2023/04/21 02:05:12;;;;;;;;;;;;;;;11.97;57.14;99831.47;4430660;32;34401;-82
2023/04/21 02:07:40;;;;;;;;;;;;;;;11.94;57.20;99832.47;4399660;32;33938;-81
2023/04/21 02:10:09;;;;;;;;;;;;;;;12.17;56.24;99836.62;4411200;32;32496;-82
2023/04/21 02:12:37;;;;;;;;;;;;;;;11.97;56.83;99839.41;4417225;32;35374;-83
2023/04/21 02:15:05;;;;;;;;;;;;;;;11.86;56.87;99845.19;4411551;32;33317;-83
2023/04/21 02:17:32;;;;;;;;;;;;;;;12.04;56.40;99840.81;4416349;32;33782;-83
2023/04/21 02:20:03;;;;;;;;;;;;;;;11.80;57.40;99840.16;4417744;32;33329;-82
2023/04/21 02:22:31;;;;;;;;;;;;;;;11.94;56.85;99845.69;4393361;32;32073;-82
2023/04/21 02:25:02;;;;;;;;;;;;;;;11.61;57.34;99849.91;4417549;32;33576;-83
2023/04/21 02:27:30;;;;;;;;;;;;;;;11.80;56.79;99842.81;4418996;32;33910;-83
2023/04/21 02:29:58;;;;;;;;;;;;;;;11.86;56.52;99844.34;4418629;32;32872;-83
2023/04/21 02:32:26;;;;;;;;;;;;;;;11.75;56.50;99839.53;4419178;32;34024;-83
2023/04/21 02:34:54;;;;;;;;;;;;;;;11.57;57.05;99845.69;4404447;32;34418;-83
2023/04/21 02:37:23;;;;;;;;;;;;;;;11.74;56.63;99845.75;4419020;32;34141;-82
2023/04/21 02:39:56;;;;;;;;;;;;;;;11.82;56.30;99843.66;4416759;32;33380;-81
2023/04/21 02:42:24;;;;;;;;;;;;;;;11.81;56.46;99847.16;4426719;32;34244;-82
2023/04/21 02:44:52;;;;;;;;;;;;;;;11.51;57.09;99847.69;4411062;32;33724;-82
2023/04/21 02:47:20;;;;;;;;;;;;;;;11.47;57.84;99847.91;4413381;32;34743;-82
2023/04/21 02:49:48;;;;;;;;;;;;;;;11.39;57.94;99842.97;4410221;32;33095;-82
2023/04/21 02:52:16;;;;;;;;;;;;;;;11.05;58.79;99848.94;4415669;32;32781;-82
2023/04/21 02:54:43;;;;;;;;;;;;;;;11.35;57.73;99846.72;4417251;32;33338;-82
2023/04/21 02:57:11;;;;;;;;;;;;;;;11.36;57.50;99847.56;4410036;32;34194;-82
2023/04/21 02:59:39;;;;;;;;;;;;;;;11.07;58.51;99854.19;4417006;32;34042;-82
2023/04/21 03:02:07;;;;;;;;;;;;;;;11.21;58.19;99857.91;4409671;32;34142;-82
2023/04/21 03:04:38;;;;;;;;;;;;;;;11.21;57.74;99851.78;4418170;32;34744;-82
2023/04/21 03:07:10;;;;;;;;;;;;;;;10.88;59.08;99857.63;4423757;32;34885;-82
2023/04/21 03:09:38;;;;;;;;;;;;;;;10.87;58.98;99857.69;4419166;32;32631;-83
2023/04/21 03:12:07;;;;;;;;;;;;;;;11.10;58.31;99854.03;4416252;32;34494;-82
2023/04/21 03:14:41;;;;;;;;;;;;;;;10.96;58.87;99858.13;4412389;32;34298;-83
2023/04/21 03:17:09;;;;;;;;;;;;;;;10.93;58.40;99852.16;4396797;32;33068;-83
2023/04/21 03:19:37;;;;;;;;;;;;;;;10.93;58.21;99847.72;4406144;32;32272;-82
2023/04/21 03:22:05;;;;;;;;;;;;;;;10.60;59.40;99857.13;4409950;32;32890;-83
2023/04/21 03:24:33;;;;;;;;;;;;;;;10.74;58.85;99849.44;4409743;32;33857;-83
2023/04/21 03:27:08;;;;;;;;;;;;;;;10.70;59.00;99842.59;4411288;32;33294;-83
2023/04/21 03:29:38;;;;;;;;;;;;;;;10.63;59.11;99849.03;4430601;32;32283;-83
2023/04/21 03:32:09;;;;;;;;;;;;;;;11.03;57.86;99848.16;4418006;32;33009;-83
2023/04/21 03:34:37;;;;;;;;;;;;;;;11.03;57.70;99853.44;4423034;32;35050;-83
2023/04/21 03:37:05;;;;;;;;;;;;;;;11.00;57.87;99854.44;4415336;32;33805;-83
2023/04/21 03:39:34;;;;;;;;;;;;;;;10.93;58.35;99857.44;4398727;32;32931;-82
2023/04/21 03:42:05;;;;;;;;;;;;;;;10.62;59.25;99863.19;4408986;32;33756;-82
2023/04/21 03:44:35;;;;;;;;;;;;;;;10.56;58.83;99860.81;4419329;32;33786;-82
2023/04/21 03:47:03;;;;;;;;;;;;;;;10.58;59.35;99861.59;4415473;32;34485;-82
2023/04/21 03:49:35;;;;;;;;;;;;;;;10.93;57.76;99863.56;4429264;32;34483;-82
2023/04/21 03:52:04;;;;;;;;;;;;;;;10.77;58.71;99862.50;4417638;32;34083;-81
2023/04/21 03:54:31;;;;;;;;;;;;;;;10.83;58.51;99862.25;4432359;32;33441;-82
2023/04/21 03:56:59;;;;;;;;;;;;;;;10.82;58.38;99860.53;4429421;32;33866;-82
2023/04/21 03:59:28;;;;;;;;;;;;;;;10.79;58.72;99870.38;4410789;32;33716;-82
2023/04/21 04:01:56;;;;;;;;;;;;;;;10.62;59.21;99868.44;4415639;32;34949;-82
2023/04/21 04:04:24;;;;;;;;;;;;;;;10.84;58.42;99873.69;4414648;32;32973;-81
2023/04/21 04:06:54;;;;;;;;;;;;;;;10.93;58.08;99868.84;4400344;32;33165;-81
2023/04/21 04:09:22;;;;;;;;;;;;;;;10.94;57.74;99875.84;4417741;32;32945;-80
2023/04/21 04:11:51;;;;;;;;;;;;;;;10.46;59.33;99874.38;4416709;32;33841;-81
2023/04/21 04:14:21;;;;;;;;;;;;;;;10.36;59.73;99875.69;4415783;32;33821;-81
2023/04/21 04:16:49;;;;;;;;;;;;;;;10.51;59.30;99887.41;4416326;32;35561;-81
2023/04/21 04:19:19;;;;;;;;;;;;;;;10.58;59.11;99888.84;4420416;32;33433;-81
2023/04/21 04:21:50;;;;;;;;;;;;;;;10.73;58.81;99893.50;4415164;32;33868;-82
2023/04/21 04:24:18;;;;;;;;;;;;;;;10.73;58.92;99890.00;4422510;32;34160;-81
2023/04/21 04:26:46;;;;;;;;;;;;;;;10.83;58.54;99887.81;4403908;32;33709;-81
2023/04/21 04:29:20;;;;;;;;;;;;;;;10.88;58.36;99891.97;4414342;32;33115;-81
2023/04/21 04:31:49;;;;;;;;;;;;;;;10.93;58.48;99897.06;4416282;32;32957;-81
2023/04/21 04:34:23;;;;;;;;;;;;;;;11.16;58.10;99888.13;4417598;32;32305;-81
2023/04/21 04:36:56;;;;;;;;;;;;;;;11.33;57.46;99896.13;4396891;32;33117;-81
2023/04/21 04:39:36;;;;;;;;;;;;;;;11.26;57.38;99898.22;4400158;32;33559;-81
2023/04/21 04:42:11;;;;;;;;;;;;;;;11.42;57.57;99895.72;4429524;32;33833;-81
2023/04/21 04:44:40;;;;;;;;;;;;;;;11.31;58.35;99899.78;4417212;32;34736;-82
2023/04/21 04:47:07;;;;;;;;;;;;;;;11.36;57.72;99897.78;4426187;32;33810;-81
2023/04/21 04:49:36;;;;;;;;;;;;;;;11.77;57.06;99895.84;4408243;32;32688;-81
2023/04/21 04:52:04;;;;;;;;;;;;;;;11.80;57.35;99898.38;4401003;32;34217;-82
2023/04/21 04:54:33;;;;;;;;;;;;;;;11.85;57.17;99890.25;4420507;32;34126;-82
2023/04/21 04:57:01;;;;;;;;;;;;;;;12.20;56.14;99883.25;4428299;32;33459;-81
2023/04/21 04:59:32;;;;;;;;;;;;;;;12.27;55.58;99884.69;4402467;32;32274;-81
2023/04/21 05:02:05;;;;;;;;;;;;;;;12.42;55.73;99891.84;4415398;32;33194;-82
2023/04/21 05:04:36;;;;;;;;;;;;;;;13.05;54.30;99886.87;4424894;32;34008;-82
2023/04/21 05:07:06;;;;;;;;;;;;;;;12.77;55.23;99881.25;4419475;32;33318;-81
2023/04/21 05:09:38;;;;;;;;;;;;;;;13.18;54.40;99878.25;4408554;32;32210;-80
2023/04/21 05:12:13;;;;;;;;;;;;;;;13.00;53.31;99883.56;4421701;32;32929;-80
2023/04/21 05:14:42;;;;;;;;;;;;;;;13.20;54.12;99887.00;4424670;32;35078;-80
2023/04/21 05:17:11;;;;;;;;;;;;;;;13.17;49.06;99879.19;4428233;32;34548;-80
2023/04/21 05:19:40;;;;;;;;;;;;;;;13.65;49.94;99875.72;4405003;32;33051;-81
2023/04/21 05:22:09;;;;;;;;;;;;;;;13.90;47.61;99875.19;4418032;32;32708;-81
2023/04/21 05:24:43;;;;;;;;;;;;;;;14.28;48.17;99882.78;4418469;32;33422;-80
2023/04/21 05:27:13;;;;;;;;;;;;;;;14.06;44.76;99880.50;4419847;32;32947;-81
2023/04/21 05:32:21;;;;;;;;;;;;;;;15.01;44.32;99883.78;4431037;32;33786;-80
2023/04/21 05:34:51;;;;;;;;;;;;;;;15.35;41.37;99882.56;4392018;32;32823;-81
2023/04/21 05:37:19;;;;;;;;;;;;;;;15.83;40.23;99885.78;4420777;32;36758;-81
2023/04/21 05:39:56;;;;;;;;;;;;;;;15.86;39.97;99879.41;4431723;32;32244;-81
2023/04/21 05:42:32;;;;;;;;;;;;;;;15.90;39.06;99880.06;4415029;32;31954;-81
2023/04/21 05:45:01;;;;;;;;;;;;;;;15.91;38.64;99881.78;4431558;32;33958;-81
2023/04/21 05:47:29;;;;;;;;;;;;;;;16.16;39.82;99881.91;4417991;32;33703;-81
2023/04/21 05:49:57;;;;;;;;;;;;;;;16.50;37.33;99877.84;4417710;32;33259;-81
2023/04/21 05:52:28;;;;;;;;;;;;;;;16.40;38.00;99884.75;4416765;32;33719;-81
2023/04/21 05:54:58;;;;;;;;;;;;;;;16.56;38.30;99884.56;4415784;32;35082;-81
2023/04/21 05:57:40;;;;;;;;;;;;;;;16.72;38.32;99889.78;4419827;32;35005;-81
2023/04/21 06:00:13;;;;;;;;;;;;;;;16.60;37.50;99889.59;4431621;32;34526;-81
2023/04/21 06:02:42;;;;;;;;;;;;;;;16.72;37.83;99885.28;4430604;32;34244;-81
2023/04/21 06:05:10;;;;;;;;;;;;;;;17.20;36.21;99892.69;4417481;32;32852;-81
2023/04/21 06:07:38;;;;;;;;;;;;;;;16.97;37.99;99879.13;4404490;32;34248;-81
2023/04/21 06:10:07;;;;;;;;;;;;;;;17.18;37.42;99891.94;4418145;32;33343;-81
2023/04/21 06:12:35;;;;;;;;;;;;;;;16.59;37.14;99890.56;4424204;32;33990;-81
2023/04/21 06:15:02;;;;;;;;;;;;;;;16.80;36.78;99890.09;4423417;32;33340;-82
2023/04/21 06:17:32;;;;;;;;;;;;;;;16.97;37.20;99891.63;4431764;32;33929;-81
2023/04/21 06:20:03;;;;;;;;;;;;;;;17.18;36.52;99887.44;4417415;32;32639;-81
2023/04/21 06:22:34;;;;;;;;;;;;;;;16.92;36.52;99888.41;4411257;32;32916;-81
2023/04/21 06:25:07;;;;;;;;;;;;;;;17.01;36.27;99885.97;4418651;32;33376;-81
2023/04/21 06:27:35;;;;;;;;;;;;;;;16.15;37.42;99890.00;4410782;32;33036;-81
2023/04/21 06:30:04;;;;;;;;;;;;;;;16.54;36.33;99890.00;4405818;32;32286;-81
2023/04/21 06:32:38;;;;;;;;;;;;;;;16.76;36.97;99893.91;4418884;32;34837;-91
2023/04/21 06:35:42;;;;;;;;;;;;;;;17.01;36.31;99891.31;4420580;32;32990;-92
2023/04/21 06:38:27;;;;;;;;;;;;;;;16.49;36.69;99885.94;4436903;32;33128;-90
2023/04/21 06:41:10;;;;;;;;;;;;;;;16.99;37.03;99887.88;4428473;32;32151;-91
2023/04/21 06:43:57;;;;;;;;;;;;;;;16.50;36.49;99885.84;4405496;32;32786;-91
2023/04/21 06:46:44;;;;;;;;;;;;;;;16.82;36.36;99889.03;4373116;32;33820;-91
2023/04/21 06:49:24;;;;;;;;;;;;;;;16.50;37.17;99885.84;4384928;32;33218;-89
2023/04/21 06:51:52;;;;;;;;;;;;;;;16.91;36.45;99886.72;4386102;32;32651;-94
2023/04/21 06:54:38;;;;;;;;;;;;;;;16.93;36.29;99882.13;4416338;32;32841;-88
2023/04/21 06:57:14;;;;;;;;;;;;;;;17.20;35.89;99887.37;4410217;32;35092;-88
2023/04/21 06:59:48;;;;;;;;;;;;;;;17.24;35.67;99873.72;4410251;32;34876;-87
2023/04/21 07:02:16;;;;;;;;;;;;;;;17.27;36.38;99875.28;4409631;32;33728;-87
2023/04/21 07:04:45;;;;;;;;;;;;;;;17.00;36.93;99878.94;4409475;32;32459;-87
2023/04/21 07:07:14;;;;;;;;;;;;;;;17.48;36.84;99875.59;4409631;32;34647;-87
2023/04/21 07:09:49;;;;;;;;;;;;;;;17.69;36.31;99870.53;4397880;32;33557;-88
2023/04/21 07:12:18;;;;;;;;;;;;;;;17.74;33.94;99868.41;4409985;32;33017;-86
2023/04/21 07:14:50;;;;;;;;;;;;;;;17.61;34.82;99863.06;4409962;32;32652;-88
2023/04/21 07:17:18;;;;;;;;;;;;;;;17.13;35.41;99885.09;4409128;32;32950;-87
2023/04/21 07:19:47;;;;;;;;;;;;;;;17.41;35.38;99868.00;4409777;32;32939;-88
2023/04/21 07:22:18;;;;;;;;;;;;;;;17.45;34.95;99876.66;4410680;32;33415;-88
2023/04/21 07:24:46;;;;;;;;;;;;;;;17.52;34.55;99867.28;4410179;32;33871;-87
2023/04/21 07:27:23;;;;;;;;;;;;;;;17.75;35.65;99859.44;4410588;32;34034;-88
2023/04/21 07:29:51;;;;;;;;;;;;;;;17.69;35.14;99871.37;4409790;32;32978;-88
2023/04/21 07:32:19;;;;;;;;;;;;;;;17.46;35.24;99870.34;4402954;32;32532;-88
2023/04/21 07:34:50;;;;;;;;;;;;;;;17.79;35.38;99860.91;4421927;32;33275;-87
2023/04/21 07:37:20;;;;;;;;;;;;;;;17.81;35.15;99873.22;4409220;32;34129;-88
2023/04/21 07:39:51;;;;;;;;;;;;;;;18.50;34.49;99872.59;4409684;32;33345;-88
2023/04/21 07:42:21;;;;;;;;;;;;;;;18.26;33.70;99869.94;4411266;32;32661;-94
2023/04/21 07:45:03;;;;;;;;;;;;;;;18.68;33.71;99872.09;4395305;32;32402;-93
2023/04/21 07:47:47;;;;;;;;;;;;;;;18.47;34.28;99871.03;4371847;32;33407;-96
2023/04/21 07:50:32;;;;;;;;;;;;;;;18.47;32.58;99876.38;4374232;32;32938;-96
2023/04/21 07:53:24;;;;;;;;;;;;;;;18.53;33.73;99867.03;4414954;32;32045;-91
2023/04/21 07:55:56;;;;;;;;;;;;;;;18.64;34.18;99867.91;4400639;32;33350;-89
2023/04/21 07:58:26;;;;;;;;;;;;;;;18.84;33.12;99873.59;4411237;32;35142;-90
2023/04/21 08:01:09;;;;;;;;;;;;;;;18.69;33.31;99872.94;4364657;32;33410;-92
2023/04/21 08:03:53;;;;;;;;;;;;;;;18.47;33.81;99873.69;4399400;32;32217;-93
2023/04/21 08:06:47;;;;;;;;;;;;;;;18.41;33.54;99869.63;4405100;32;34630;-92
2023/04/21 08:09:32;;;;;;;;;;;;;;;18.34;33.84;99868.41;4421225;32;32950;-93
2023/04/21 08:12:25;;;;;;;;;;;;;;;18.17;33.92;99869.66;4383500;32;32480;-91
2023/04/21 08:15:07;;;;;;;;;;;;;;;18.67;33.55;99873.03;4383881;32;862100;-90
2023/04/21 08:17:51;;;;;;;;;;;;;;;18.80;33.61;99875.66;4395161;32;32626;-91
2023/04/21 08:20:46;;;;;;;;;;;;;;;18.78;33.18;99872.22;4412883;32;34676;-92
2023/04/21 08:23:29;;;;;;;;;;;;;;;19.24;32.22;99867.81;4387688;32;33174;-94
2023/04/21 08:26:13;;;;;;;;;;;;;;;19.15;32.36;99874.75;4386751;32;32101;-93
2023/04/21 08:28:55;;;;;;;;;;;;;;;18.89;31.95;99880.28;4405334;32;33248;-93
2023/04/21 08:31:37;;;;;;;;;;;;;;;19.21;33.03;99876.94;4409926;32;33050;-93
2023/04/21 08:34:26;;;;;;;;;;;;;;;19.23;32.33;99871.44;4404574;32;34819;-95
2023/04/21 08:37:23;;;;;;;;;;;;;;;18.89;33.09;99876.75;4404050;32;34206;-95
2023/04/21 08:40:09;;;;;;;;;;;;;;;19.49;31.97;99861.38;4398246;32;32450;-94
2023/04/21 08:42:53;;;;;;;;;;;;;;;19.61;32.14;99861.28;4374222;32;32995;-93
2023/04/21 08:45:48;;;;;;;;;;;;;;;20.01;32.84;99863.41;4397800;32;32694;-92
2023/04/21 08:48:37;;;;;;;;;;;;;;;20.26;31.87;99858.69;4403211;32;33135;-92
2023/04/21 08:51:27;;;;;;;;;;;;;;;20.37;30.06;99842.59;4393336;32;34736;-91
2023/04/21 08:54:21;;;;;;;;;;;;;;;19.73;30.88;99848.72;4418873;32;35657;-91
2023/04/21 08:57:03;;;;;;;;;;;;;;;20.33;30.72;99846.50;4391150;32;32785;-91
2023/04/21 08:59:44;;;;;;;;;;;;;;;20.36;29.42;99851.59;4408020;32;32162;-90
2023/04/21 09:02:33;;;;;;;;;;;;;;;19.80;31.47;99859.81;4400543;32;34628;-91
2023/04/21 09:05:25;;;;;;;;;;;;;;;20.01;29.65;99847.31;4390537;32;33206;-93
2023/04/21 09:08:08;;;;;;;;;;;;;;;20.01;29.72;99852.69;4414548;32;33370;-91
2023/04/21 09:10:53;;;;;;;;;;;;;;;19.55;30.36;99861.72;4398826;32;32905;-92
2023/04/21 09:13:49;;;;;;;;;;;;;;;20.46;30.32;99849.81;4427378;32;34620;-92
2023/04/21 09:16:34;;;;;;;;;;;;;;;20.12;28.73;99849.97;4422072;32;34057;-93
2023/04/21 09:19:16;;;;;;;;;;;;;;;19.99;30.13;99848.41;4415187;32;32319;-93
2023/04/21 09:22:15;;;;;;;;;;;;;;;19.88;29.77;99841.25;4405510;32;34017;-95
2023/04/21 09:25:01;;;;;;;;;;;;;;;20.26;28.63;99847.97;4386094;32;32479;-92
2023/04/21 09:27:47;;;;;;;;;;;;;;;20.83;28.32;99846.75;4389279;32;33408;-91
2023/04/21 09:30:39;;;;;;;;;;;;;;;20.57;28.73;99841.78;4398917;32;32257;-93
2023/04/21 09:33:32;;;;;;;;;;;;;;;20.61;28.64;99837.88;4401455;32;34029;-92
2023/04/21 09:36:27;;;;;;;;;;;;;;;20.65;29.62;99836.62;4405926;32;35534;-92
2023/04/21 09:39:11;;;;;;;;;;;;;;;20.75;28.42;99830.44;4416640;32;34162;-89
2023/04/21 09:41:53;;;;;;;;;;;;;;;20.37;28.83;99829.19;4403263;32;32840;-89
2023/04/21 09:44:21;;;;;;;;;;;;;;;20.29;29.85;99829.81;4420639;32;33239;-89
2023/04/21 09:46:58;;;;;;;;;;;;;;;20.51;29.74;99828.91;4422306;32;34168;-89
2023/04/21 09:49:28;;;;;;;;;;;;;;;21.08;28.70;99816.81;4406947;32;36098;-89
2023/04/21 09:51:58;;;;;;;;;;;;;;;20.55;28.41;99822.25;4421381;32;33058;-90
2023/04/21 09:54:50;;;;;;;;;;;;;;;20.58;29.02;99821.16;4397973;32;33276;-90
2023/04/21 09:57:27;;;;;;;;;;;;;;;20.61;27.88;99812.88;4387623;32;32614;-89
2023/04/21 10:00:22;;;;;;;;;;;;;;;20.46;28.05;99823.00;4393184;32;35559;-91
2023/04/21 10:03:15;;;;;;;;;;;;;;;20.62;28.73;99817.25;4347446;32;32753;-92
2023/04/21 10:05:55;;;;;;;;;;;;;;;20.85;28.86;99810.75;4384241;32;32146;-92
2023/04/21 10:08:43;;;;;;;;;;;;;;;21.03;28.22;99799.41;4391373;32;32632;-87
2023/04/21 10:11:12;;;;;;;;;;;;;;;21.54;27.51;99791.28;4392179;32;34438;-87
2023/04/21 10:13:40;;;;;;;;;;;;;;;21.15;27.48;99796.50;4420061;32;33894;-87
2023/04/21 10:16:10;;;;;;;;;;;;;;;20.93;28.96;99807.41;4433821;32;31957;-87
2023/04/21 10:18:42;;;;;;;;;;;;;;;21.54;28.43;99802.03;4428245;32;33921;-88
2023/04/21 10:21:20;;;;;;;;;;;;;;;21.57;27.79;99796.41;4427732;32;34237;-87
2023/04/21 10:23:50;;;;;;;;;;;;;;;21.15;27.48;99804.56;4416450;32;32711;-87
2023/04/21 10:26:19;;;;;;;;;;;;;;;20.93;27.78;99799.34;4423139;32;33021;-87
2023/04/21 10:28:59;;;;;;;;;;;;;;;20.97;28.12;99792.72;4416334;32;34339;-87
2023/04/21 10:31:36;;;;;;;;;;;;;;;21.09;28.37;99797.03;4428722;32;33180;-87
2023/04/21 10:34:10;;;;;;;;;;;;;;;21.57;28.81;99784.81;4429011;32;34168;-87
2023/04/21 10:36:42;;;;;;;;;;;;;;;21.52;28.19;99787.91;4415068;32;33738;-88
2023/04/21 10:39:24;;;;;;;;;;;;;;;22.30;28.29;99788.00;4425626;32;34031;-88
2023/04/21 10:41:54;;;;;;;;;;;;;;;22.47;26.59;99780.09;4415217;32;33010;-87
2023/04/21 10:44:23;;;;;;;;;;;;;;;21.83;26.84;99780.59;4415886;32;33541;-87
2023/04/21 10:46:55;;;;;;;;;;;;;;;21.71;27.28;99768.28;4413295;32;31833;-87
2023/04/21 10:49:31;;;;;;;;;;;;;;;22.79;28.07;99759.19;4406603;32;34281;-87
2023/04/21 10:52:06;;;;;;;;;;;;;;;23.09;27.83;99758.97;4414427;32;33450;-87
2023/04/21 10:54:40;;;;;;;;;;;;;;;21.86;26.36;99769.56;4425786;32;33957;-87
2023/04/21 10:57:13;;;;;;;;;;;;;;;21.67;27.58;99765.03;4427653;32;33549;-87
2023/04/21 10:59:43;;;;;;;;;;;;;;;21.85;27.03;99756.28;4418128;32;33736;-87
2023/04/21 11:02:12;;;;;;;;;;;;;;;21.86;27.15;99764.19;4429106;32;34347;-87
2023/04/21 11:04:46;;;;;;;;;;;;;;;22.24;26.04;99759.84;4435312;32;34099;-87
2023/04/21 11:07:18;;;;;;;;;;;;;;;22.44;27.23;99758.00;4440444;32;31952;-87
2023/04/21 11:09:59;;;;;;;;;;;;;;;22.33;27.29;99760.84;4428111;32;34352;-87
2023/04/21 11:12:31;;;;;;;;;;;;;;;21.90;27.41;99760.25;4427444;32;34392;-87
2023/04/21 11:15:01;;;;;;;;;;;;;;;21.81;27.46;99753.03;4429792;32;34067;-87
2023/04/21 11:17:30;;;;;;;;;;;;;;;22.06;26.56;99754.31;4428155;32;32545;-87
2023/04/21 11:20:02;;;;;;;;;;;;;;;22.32;26.34;99754.63;4415380;32;33857;-87
2023/04/21 11:22:36;;;;;;;;;;;;;;;21.92;26.29;99749.34;4428720;32;35125;-86
2023/04/21 11:25:16;;;;;;;;;;;;;;;22.36;26.47;99747.09;4439594;32;34234;-87
2023/04/21 11:27:55;;;;;;;;;;;;;;;22.43;26.82;99754.44;4441184;32;32732;-86
2023/04/21 11:30:32;;;;;;;;;;;;;;;22.27;26.58;99746.12;4442060;32;34576;-87
2023/04/21 11:33:06;;;;;;;;;;;;;;;22.39;27.73;99752.19;4418148;32;34304;-86
2023/04/21 11:35:35;;;;;;;;;;;;;;;22.34;26.41;99741.00;4438248;32;33797;-86
2023/04/21 11:38:04;;;;;;;;;;;;;;;22.75;27.29;99746.03;4417388;32;33234;-87
2023/04/21 11:40:46;;;;;;;;;;;;;;;22.64;26.38;99743.50;4438524;32;34227;-86
2023/04/21 11:43:14;;;;;;;;;;;;;;;22.67;25.55;99735.13;4440753;32;34297;-86
2023/04/21 11:45:43;;;;;;;;;;;;;;;22.79;27.02;99727.75;4442620;32;34193;-86
2023/04/21 11:48:16;;;;;;;;;;;;;;;23.35;26.00;99728.66;4428795;32;34665;-86
2023/04/21 11:50:47;;;;;;;;;;;;;;;23.66;24.89;99734.59;4426918;32;34049;-86
2023/04/21 11:53:15;;;;;;;;;;;;;;;23.20;25.95;99731.84;4417469;32;33118;-86
2023/04/21 11:55:44;;;;;;;;;;;;;;;23.13;25.76;99736.13;4430831;32;31298;-85
2023/04/21 11:58:16;;;;;;;;;;;;;;;23.05;26.94;99729.78;4434867;32;33436;-86
2023/04/21 12:00:49;;;;;;;;;;;;;;;23.21;26.17;99728.13;4429041;32;32552;-85
2023/04/21 12:03:19;;;;;;;;;;;;;;;22.77;26.64;99726.19;4415183;32;36984;-86
2023/04/21 12:05:54;;;;;;;;;;;;;;;22.69;25.98;99735.84;4417179;32;33917;-86
2023/04/21 12:08:27;;;;;;;;;;;;;;;21.72;27.28;99735.88;4416979;32;33648;-86
2023/04/21 12:11:00;;;;;;;;;;;;;;;21.36;28.13;99740.06;4430743;32;32890;-86
2023/04/21 12:13:32;;;;;;;;;;;;;;;21.40;27.39;99735.25;4413943;32;33226;-86
2023/04/21 12:16:03;;;;;;;;;;;;;;;21.71;27.44;99726.13;4429792;32;34083;-86
2023/04/21 12:18:32;;;;;;;;;;;;;;;21.70;27.29;99715.53;4438151;32;33405;-86
2023/04/21 12:21:06;;;;;;;;;;;;;;;21.90;26.66;99711.87;4429242;32;33826;-86
2023/04/21 12:23:40;;;;;;;;;;;;;;;22.41;26.98;99715.25;4427812;32;34652;-86
2023/04/21 12:26:09;;;;;;;;;;;;;;;22.73;26.83;99713.00;4413361;32;33201;-86
2023/04/21 12:28:37;;;;;;;;;;;;;;;22.77;26.00;99707.34;4429537;32;33165;-85
2023/04/21 12:31:05;;;;;;;;;;;;;;;22.51;26.25;99707.16;4439642;32;33803;-86
2023/04/21 12:33:39;;;;;;;;;;;;;;;22.88;25.32;99701.75;4439733;32;35017;-86
2023/04/21 12:36:08;;;;;;;;;;;;;;;22.54;25.63;99705.00;4423830;32;33351;-86
2023/04/21 12:38:37;;;;;;;;;;;;;;;22.33;26.30;99704.34;4439979;32;34019;-86
2023/04/21 12:41:11;;;;;;;;;;;;;;;22.09;26.68;99708.31;4434693;32;33314;-85
2023/04/21 12:43:42;;;;;;;;;;;;;;;22.13;26.13;99714.31;4431436;32;35353;-86
2023/04/21 12:46:10;;;;;;;;;;;;;;;21.66;28.01;99720.34;4441506;32;34437;-86
2023/04/21 12:48:39;;;;;;;;;;;;;;;21.63;26.90;99709.84;4442143;32;32990;-86
2023/04/21 12:51:07;;;;;;;;;;;;;;;21.61;27.56;99711.84;4437111;32;33715;-86
2023/04/21 12:53:36;;;;;;;;;;;;;;;21.52;27.59;99706.47;4442528;32;35117;-86
2023/04/21 12:56:04;;;;;;;;;;;;;;;22.14;27.98;99714.16;4424911;32;33687;-86
2023/04/21 12:58:38;;;;;;;;;;;;;;;22.12;27.02;99705.34;4431589;32;32837;-86
2023/04/21 13:01:13;;;;;;;;;;;;;;;22.14;26.04;99708.78;4431801;32;33342;-86
2023/04/21 13:03:42;;;;;;;;;;;;;;;21.46;28.11;99705.19;4427189;32;32940;-85
2023/04/21 13:06:13;;;;;;;;;;;;;;;21.35;27.65;99700.75;4419104;32;32720;-86
2023/04/21 13:08:43;;;;;;;;;;;;;;;21.62;27.15;99699.25;4422130;32;32816;-86
2023/04/21 13:11:11;;;;;;;;;;;;;;;21.37;26.96;99698.81;4421931;32;33135;-86
2023/04/21 13:13:39;;;;;;;;;;;;;;;21.80;27.50;99702.09;4416234;32;33035;-86
2023/04/21 13:16:09;;;;;;;;;;;;;;;21.81;27.16;99695.72;4419073;32;33731;-86
2023/04/21 13:18:46;;;;;;;;;;;;;;;21.94;27.51;99693.63;4418712;32;33040;-86
2023/04/21 13:21:14;;;;;;;;;;;;;;;21.48;27.39;99689.75;4416677;32;32868;-86
2023/04/21 13:23:42;;;;;;;;;;;;;;;21.00;28.25;99690.47;4418509;32;32923;-86